KBZN/BZN METAR and TAF weather

Enter ICAO airport designator
Station Type Date Time Source
KBZN METAR 2020/02/21 15:56 UTC NOAA

KBZN 211556Z 00000KT 10SM CLR M13/M18 A3024 RMK AO2 SLP325 T11331178


Station Type Date Time Source
KBZN Decoded METAR 2020/02/21 15:56 UTC NOAA

BOZEMAN GALLATIN FIELD, MT, United States (KBZN) 45-47N 111-09W 1361M
Feb 21, 2020 - 10:56 AM EST / 2020.02.21 1556 UTC
Wind: Calm:0
Visibility: 10 mile(s):0
Sky conditions: clear
Temperature: 8.1 F (-13.3 C)
Dew Point: -0.0 F (-17.8 C)
Relative Humidity: 68%
Pressure (altimeter): 30.24 in. Hg (1024 hPa)
ob: KBZN 211556Z 00000KT 10SM CLR M13/M18 A3024 RMK AO2 SLP325 T11331178
cycle: 16

Station Type Date Time Source
KBZN TAF 2020/02/21 12:34 UTC NOAA

TAF KBZN 211132Z 2112/2218 VRB06KT P6SM FEW200

Example: see airport list